地図

経路データ

SID SEASON NUMBER BASIN SUBBASIN NAME ISO_TIME NATURE LAT LON WMO_WIND WMO_PRES WMO_AGENCY TRACK_TYPE DIST2LAND LANDFALL IFLAG USA_AGENCY USA_ATCF_ID USA_LAT USA_LON USA_RECORD USA_STATUS USA_WIND USA_PRES USA_SSHS USA_R34_NE USA_R34_SE USA_R34_SW USA_R34_NW USA_R50_NE USA_R50_SE USA_R50_SW USA_R50_NW USA_R64_NE USA_R64_SE USA_R64_SW USA_R64_NW USA_POCI USA_ROCI USA_RMW USA_EYE TOKYO_LAT TOKYO_LON TOKYO_GRADE TOKYO_WIND TOKYO_PRES TOKYO_R50_DIR TOKYO_R50_LONG TOKYO_R50_SHORT TOKYO_R30_DIR TOKYO_R30_LONG TOKYO_R30_SHORT TOKYO_LAND CMA_LAT CMA_LON CMA_CAT CMA_WIND CMA_PRES HKO_LAT HKO_LON HKO_CAT HKO_WIND HKO_PRES NEWDELHI_LAT NEWDELHI_LON NEWDELHI_GRADE NEWDELHI_WIND NEWDELHI_PRES NEWDELHI_CI NEWDELHI_DP NEWDELHI_POCI REUNION_LAT REUNION_LON REUNION_TYPE REUNION_WIND REUNION_PRES REUNION_TNUM REUNION_CI REUNION_RMW REUNION_R34_NE REUNION_R34_SE REUNION_R34_SW REUNION_R34_NW REUNION_R50_NE REUNION_R50_SE REUNION_R50_SW REUNION_R50_NW REUNION_R64_NE REUNION_R64_SE REUNION_R64_SW REUNION_R64_NW BOM_LAT BOM_LON BOM_TYPE BOM_WIND BOM_PRES BOM_TNUM BOM_CI BOM_RMW BOM_R34_NE BOM_R34_SE BOM_R34_SW BOM_R34_NW BOM_R50_NE BOM_R50_SE BOM_R50_SW BOM_R50_NW BOM_R64_NE BOM_R64_SE BOM_R64_SW BOM_R64_NW BOM_ROCI BOM_POCI BOM_EYE BOM_POS_METHOD BOM_PRES_METHOD NADI_LAT NADI_LON NADI_CAT NADI_WIND NADI_PRES WELLINGTON_LAT WELLINGTON_LON WELLINGTON_WIND WELLINGTON_PRES DS824_LAT DS824_LON DS824_STAGE DS824_WIND DS824_PRES TD9636_LAT TD9636_LON TD9636_STAGE TD9636_WIND TD9636_PRES TD9635_LAT TD9635_LON TD9635_WIND TD9635_PRES TD9635_ROCI NEUMANN_LAT NEUMANN_LON NEUMANN_CLASS NEUMANN_WIND NEUMANN_PRES MLC_LAT MLC_LON MLC_CLASS MLC_WIND MLC_PRES USA_GUST BOM_GUST BOM_GUST_PER REUNION_GUST REUNION_GUST_PER USA_SEAHGT USA_SEARAD_NE USA_SEARAD_SE USA_SEARAD_SW USA_SEARAD_NW STORM_SPEED STORM_DIR
1898300N18299 1898 55 NA CS NOT_NAMED 1898-10-27 06:00:00 TS 17.9000 -61.2000 50 hurdat_atl main 466 393 O_____________ hurdat_atl AL111898 17.9000 -61.2000 TS 50 0 14 261
1898300N18299 1898 55 NA CS NOT_NAMED 1898-10-27 09:00:00 TS 17.7907 -61.9303 main 393 322 P_____________ AL111898 17.7907 -61.9303 TS 50 0 13 261
1898300N18299 1898 55 NA CS NOT_NAMED 1898-10-27 12:00:00 TS 17.7000 -62.6000 50 hurdat_atl main 322 270 O_____________ hurdat_atl AL111898 17.7000 -62.6000 TS 50 0 12 263
1898300N18299 1898 55 NA CS NOT_NAMED 1898-10-27 15:00:00 TS 17.6421 -63.1724 main 262 211 P_____________ AL111898 17.6421 -63.1724 TS 50 0 11 265
1898300N18299 1898 55 NA CS NOT_NAMED 1898-10-27 18:00:00 TS 17.6000 -63.7000 50 hurdat_atl main 211 162 O_____________ hurdat_atl AL111898 17.6000 -63.7000 TS 50 0 10 265
1898300N18299 1898 55 NA CS NOT_NAMED 1898-10-27 21:00:00 TS 17.5498 -64.2500 main 167 115 P_____________ AL111898 17.5498 -64.2500 TS 50 0 11 265
1898300N18299 1898 55 NA CS NOT_NAMED 1898-10-28 00:00:00 TS 17.5000 -64.8000 50 hurdat_atl main 115 77 O_____________ hurdat_atl AL111898 17.5000 -64.8000 TS 50 0 11 264
1898300N18299 1898 55 NA CS NOT_NAMED 1898-10-28 03:00:00 TS 17.4423 -65.3500 main 79 64 P_____________ AL111898 17.4423 -65.3500 TS 50 0 11 265
1898300N18299 1898 55 NA CS NOT_NAMED 1898-10-28 06:00:00 TS 17.4000 -65.9000 50 hurdat_atl main 64 55 O_____________ hurdat_atl AL111898 17.4000 -65.9000 TS 50 0 11 267
1898300N18299 1898 55 NA CS NOT_NAMED 1898-10-28 09:00:00 TS 17.3923 -66.4499 main 59 55 P_____________ AL111898 17.3923 -66.4499 TS 50 0 11 270
1898300N18299 1898 55 NA CS NOT_NAMED 1898-10-28 12:00:00 TS 17.4000 -67.0000 50 hurdat_atl main 56 55 O_____________ hurdat_atl AL111898 17.4000 -67.0000 TS 50 0 11 270
1898300N18299 1898 55 NA CS NOT_NAMED 1898-10-28 15:00:00 TS 17.3999 -67.5500 main 64 64 P_____________ AL111898 17.3999 -67.5500 TS 50 0 11 270
1898300N18299 1898 55 NA CS NOT_NAMED 1898-10-28 18:00:00 TS 17.4000 -68.1000 50 hurdat_atl main 103 89 O_____________ hurdat_atl AL111898 17.4000 -68.1000 TS 50 0 11 270
1898300N18299 1898 55 NA CS NOT_NAMED 1898-10-28 21:00:00 TS 17.3998 -68.6500 main 89 89 P_____________ AL111898 17.3998 -68.6500 TS 50 0 11 270
1898300N18299 1898 55 NA CS NOT_NAMED 1898-10-29 00:00:00 TS 17.4000 -69.2000 50 hurdat_atl main 99 99 O_____________ hurdat_atl AL111898 17.4000 -69.2000 TS 50 0 11 270
1898300N18299 1898 55 NA CS NOT_NAMED 1898-10-29 03:00:00 TS 17.3999 -69.7575 main 99 89 P_____________ AL111898 17.3999 -69.7575 TS 50 0 11 270
1898300N18299 1898 55 NA CS NOT_NAMED 1898-10-29 06:00:00 TS 17.4000 -70.3000 50 hurdat_atl main 89 67 O_____________ hurdat_atl AL111898 17.4000 -70.3000 TS 50 0 10 270
1898300N18299 1898 55 NA CS NOT_NAMED 1898-10-29 09:00:00 TS 17.3998 -70.8075 main 67 24 P_____________ AL111898 17.3998 -70.8075 TS 50 0 10 270
1898300N18299 1898 55 NA CS NOT_NAMED 1898-10-29 12:00:00 TS 17.4000 -71.3000 50 hurdat_atl main 24 22 O_____________ hurdat_atl AL111898 17.4000 -71.3000 TS 50 0 10 270
1898300N18299 1898 55 NA CS NOT_NAMED 1898-10-29 15:00:00 TS 17.3999 -71.8075 main 47 47 P_____________ AL111898 17.3999 -71.8075 TS 50 0 10 270
1898300N18299 1898 55 NA CS NOT_NAMED 1898-10-29 18:00:00 TS 17.4000 -72.3000 50 hurdat_atl main 86 79 O_____________ hurdat_atl AL111898 17.4000 -72.3000 TS 50 0 9 270
1898300N18299 1898 55 NA CS NOT_NAMED 1898-10-29 21:00:00 TS 17.3998 -72.7575 main 78 78 P_____________ AL111898 17.3998 -72.7575 TS 50 0 9 270
1898300N18299 1898 55 NA CS NOT_NAMED 1898-10-30 00:00:00 TS 17.4000 -73.2000 50 hurdat_atl main 89 70 O_____________ hurdat_atl AL111898 17.4000 -73.2000 TS 50 0 9 270
1898300N18299 1898 55 NA CS NOT_NAMED 1898-10-30 03:00:00 TS 17.3999 -73.6575 main 67 67 P_____________ AL111898 17.3999 -73.6575 TS 50 0 9 270
1898300N18299 1898 55 NA CS NOT_NAMED 1898-10-30 06:00:00 TS 17.4000 -74.1000 50 hurdat_atl main 70 70 O_____________ hurdat_atl AL111898 17.4000 -74.1000 TS 50 0 8 270
1898300N18299 1898 55 NA CS NOT_NAMED 1898-10-30 09:00:00 TS 17.3999 -74.5075 main 92 92 P_____________ AL111898 17.3999 -74.5075 TS 50 0 8 270
1898300N18299 1898 55 NA CS NOT_NAMED 1898-10-30 12:00:00 TS 17.4000 -74.9000 50 hurdat_atl main 113 110 O_____________ hurdat_atl AL111898 17.4000 -74.9000 TS 50 0 7 270
1898300N18299 1898 55 NA CS NOT_NAMED 1898-10-30 15:00:00 TS 17.3999 -75.2925 main 110 77 P_____________ AL111898 17.3999 -75.2925 TS 50 0 8 270
1898300N18299 1898 55 NA CS NOT_NAMED 1898-10-30 18:00:00 TS 17.4000 -75.7000 50 hurdat_atl main 77 56 O_____________ hurdat_atl AL111898 17.4000 -75.7000 TS 50 0 8 270
1898300N18299 1898 55 NA CS NOT_NAMED 1898-10-30 21:00:00 TS 17.4000 -76.1500 main 56 55 P_____________ AL111898 17.4000 -76.1500 TS 50 0 9 270
1898300N18299 1898 55 NA CS NOT_NAMED 1898-10-31 00:00:00 TS 17.4000 -76.6000 50 hurdat_atl main 55 39 O_____________ hurdat_atl AL111898 17.4000 -76.6000 TS 50 0 8 270
1898300N18299 1898 55 NA CS NOT_NAMED 1898-10-31 03:00:00 TS 17.3999 -77.0075 main 39 33 P_____________ AL111898 17.3999 -77.0075 TS 50 0 8 270
1898300N18299 1898 55 NA CS NOT_NAMED 1898-10-31 06:00:00 TS 17.4000 -77.4000 50 hurdat_atl main 39 39 O_____________ hurdat_atl AL111898 17.4000 -77.4000 TS 50 0 7 270
1898300N18299 1898 55 NA CS NOT_NAMED 1898-10-31 09:00:00 TS 17.3999 -77.7925 main 56 56 P_____________ AL111898 17.3999 -77.7925 TS 50 0 8 270
1898300N18299 1898 55 NA CS NOT_NAMED 1898-10-31 12:00:00 TS 17.4000 -78.2000 50 hurdat_atl main 77 77 O_____________ hurdat_atl AL111898 17.4000 -78.2000 TS 50 0 8 269
1898300N18299 1898 55 NA CS NOT_NAMED 1898-10-31 15:00:00 TS 17.3924 -78.6426 main 91 91 P_____________ AL111898 17.3924 -78.6426 TS 50 0 9 270
1898300N18299 1898 55 NA CS NOT_NAMED 1898-10-31 18:00:00 TS 17.4000 -79.1000 50 hurdat_atl main 116 116 O_____________ hurdat_atl AL111898 17.4000 -79.1000 TS 50 0 9 273
1898300N18299 1898 55 NA CS NOT_NAMED 1898-10-31 21:00:00 TS 17.4424 -79.5575 main 155 149 P_____________ AL111898 17.4424 -79.5575 TS 50 0 9 277
1898300N18299 1898 55 NA CS NOT_NAMED 1898-11-01 00:00:00 TS 17.5000 -80.0000 50 hurdat_atl main 186 186 O_____________ hurdat_atl AL111898 17.5000 -80.0000 TS 50 0 8 278
1898300N18299 1898 55 NA CS NOT_NAMED 1898-11-01 03:00:00 TS 17.5498 -80.4000 main 225 222 P_____________ AL111898 17.5498 -80.4000 TS 50 0 8 277
1898300N18299 1898 55 NA CS NOT_NAMED 1898-11-01 06:00:00 TS 17.6000 -80.8000 50 hurdat_atl main 262 262 O_____________ hurdat_atl AL111898 17.6000 -80.8000 TS 50 0 8 278
1898300N18299 1898 55 NA CS NOT_NAMED 1898-11-01 09:00:00 TS 17.6575 -81.2575 main 311 311 P_____________ AL111898 17.6575 -81.2575 TS 50 0 9 277
1898300N18299 1898 55 NA CS NOT_NAMED 1898-11-01 12:00:00 TS 17.7000 -81.7000 50 hurdat_atl main 324 302 O_____________ hurdat_atl AL111898 17.7000 -81.7000 TS 50 0 8 274
1898300N18299 1898 55 NA CS NOT_NAMED 1898-11-01 15:00:00 TS 17.7074 -82.0725 main 302 288 P_____________ AL111898 17.7074 -82.0725 TS 50 0 7 270
1898300N18299 1898 55 NA CS NOT_NAMED 1898-11-01 18:00:00 TS 17.7000 -82.4000 50 hurdat_atl main 288 272 O_____________ hurdat_atl AL111898 17.7000 -82.4000 TS 50 0 6 269
1898300N18299 1898 55 NA CS NOT_NAMED 1898-11-01 21:00:00 TS 17.6924 -82.7075 main 272 253 P_____________ AL111898 17.6924 -82.7075 TS 50 0 6 270
1898300N18299 1898 55 NA CS NOT_NAMED 1898-11-02 00:00:00 TS 17.7000 -83.0000 50 hurdat_atl main 253 237 O_____________ hurdat_atl AL111898 17.7000 -83.0000 TS 50 0 6 276
1898300N18299 1898 55 NA CS NOT_NAMED 1898-11-02 03:00:00 TS 17.7499 -83.2924 main 237 235 P_____________ AL111898 17.7499 -83.2924 TS 50 0 6 280
1898300N18299 1898 55 NA CS NOT_NAMED 1898-11-02 06:00:00 TS 17.8000 -83.6000 50 hurdat_atl main 235 227 O_____________ hurdat_atl AL111898 17.8000 -83.6000 TS 50 0 6 275
1898300N18299 1898 55 NA CS NOT_NAMED 1898-11-02 09:00:00 TS 17.7999 -83.9351 main 227 216 P_____________ AL111898 17.7999 -83.9351 TS 50 0 7 270
1898300N18299 1898 55 NA CS NOT_NAMED 1898-11-02 12:00:00 TS 17.8000 -84.3000 50 hurdat_atl main 216 212 O_____________ hurdat_atl AL111898 17.8000 -84.3000 TS 50 0 7 273
1898300N18299 1898 55 NA CS NOT_NAMED 1898-11-02 15:00:00 TS 17.8425 -84.6925 main 212 212 P_____________ AL111898 17.8425 -84.6925 TS 50 0 8 277
1898300N18299 1898 55 NA CS NOT_NAMED 1898-11-02 18:00:00 TS 17.9000 -85.1000 50 hurdat_atl main 223 223 O_____________ hurdat_atl AL111898 17.9000 -85.1000 TS 50 0 8 279
1898300N18299 1898 55 NA CS NOT_NAMED 1898-11-02 21:00:00 TS 17.9574 -85.4925 main 235 201 P_____________ AL111898 17.9574 -85.4925 TS 50 0 8 277
1898300N18299 1898 55 NA CS NOT_NAMED 1898-11-03 00:00:00 TS 18.0000 -85.9000 50 hurdat_atl main 201 160 O_____________ hurdat_atl AL111898 18.0000 -85.9000 TS 50 0 8 273
1898300N18299 1898 55 NA CS NOT_NAMED 1898-11-03 03:00:00 TS 17.9999 -86.3351 main 160 108 P_____________ AL111898 17.9999 -86.3351 TS 50 0 9 270
1898300N18299 1898 55 NA CS NOT_NAMED 1898-11-03 06:00:00 TS 18.0000 -86.8000 50 hurdat_atl main 108 57 O_____________ hurdat_atl AL111898 18.0000 -86.8000 TS 50 0 9 273
1898300N18299 1898 55 NA CS NOT_NAMED 1898-11-03 09:00:00 TS 18.0499 -87.2849 main 57 11 P_____________ AL111898 18.0499 -87.2849 TS 45 0 10 276
1898300N18299 1898 55 NA CS NOT_NAMED 1898-11-03 12:00:00 TS 18.1000 -87.8000 40 hurdat_atl main 11 0 O_____________ hurdat_atl AL111898 18.1000 -87.8000 TS 40 0 10 273
1898300N18299 1898 55 NA NA NOT_NAMED 1898-11-03 15:00:00 TS 18.0998 -88.3352 main 0 0 P_____________ AL111898 18.0998 -88.3352 TS 37 0 10 270
1898300N18299 1898 55 NA NA NOT_NAMED 1898-11-03 18:00:00 TS 18.1000 -88.9000 35 hurdat_atl main 0 0 O_____________ hurdat_atl AL111898 18.1000 -88.9000 TS 35 0 11 273
1898300N18299 1898 55 NA NA NOT_NAMED 1898-11-03 21:00:00 TS 18.1499 -89.4924 main 0 0 P_____________ AL111898 18.1499 -89.4924 TS 32 -1 11 275
1898300N18299 1898 55 NA NA NOT_NAMED 1898-11-04 00:00:00 TS 18.2000 -90.1000 30 hurdat_atl main 0 0 O_____________ hurdat_atl AL111898 18.2000 -90.1000 TD 30 -1 11 273
1898300N18299 1898 55 NA NA NOT_NAMED 1898-11-04 03:00:00 TS 18.2072 -90.6851 main 0 0 P_____________ AL111898 18.2072 -90.6851 TD 30 -1 11 270
1898300N18299 1898 55 NA NA NOT_NAMED 1898-11-04 06:00:00 TS 18.2000 -91.3000 30 hurdat_atl main 0 0 O_____________ hurdat_atl AL111898 18.2000 -91.3000 TD 30 -1 13 269
1898300N18299 1898 55 NA NA NOT_NAMED 1898-11-04 09:00:00 TS 18.1926 -92.0076 main 0 0 P_____________ AL111898 18.1926 -92.0076 TD 27 -1 13 270
1898300N18299 1898 55 NA NA NOT_NAMED 1898-11-04 12:00:00 TS 18.2000 -92.7000 25 hurdat_atl main 0 0 O_____________ hurdat_atl AL111898 18.2000 -92.7000 TD 25 -1 12 272
1898300N18299 1898 55 NA NA NOT_NAMED 1898-11-04 15:00:00 TS 18.2400 -93.2849 main 0 0 P_____________ AL111898 18.2400 -93.2849 TD 22 -1 11 275
1898300N18299 1898 55 NA GM NOT_NAMED 1898-11-04 18:00:00 TS 18.3000 -93.8000 20 hurdat_atl main 0 O_____________ hurdat_atl AL111898 18.3000 -93.8000 TD 20 -1 10 277

IBTrACS Databaseについて

本データベースは、米国NOAAが公開する1842年以降の世界の熱帯低気圧のベストトラックデータアーカイブInternational Best Track Archive for Climate Stewardship (IBTrACS)を、ウェブで閲覧しやすい形式に変換したものです。

最終更新日:2021-10-08